Home   Weather   France   Quimper   Past weeks
Flag for France

Past Weather in Quimper, Bretagne, France — Yesterday and Last 2 Weeks

Currently: 64 °F. Partly sunny. (Weather station: Quimper Airport, France). See more current weather

Past Weather in Quimper — Graph

°F

Quimper Temperature Yesterday

Maximum temperature yesterday: 68 °F (at 6:00 pm)
Minimum temperature yesterday: 52 °F (at 5:00 am)
Average temperature yesterday: 59 °F

High & Low Weather Summary for the Past Weeks

 TemperatureHumidityPressure
High82 °F (Jun 13, 5:00 pm)100% (Jun 9, 11:30 pm)30.30 "Hg (Jun 9, 11:30 pm)
Low48 °F (Jun 24, 6:00 am)42% (Jun 14, 6:00 pm)29.65 "Hg (Jun 20, 4:00 pm)
Average63 °F82%30.05 "Hg
* Reported Jun 9 2:00 pm — Jun 24 2:00 pm, Quimper. Weather by CustomWeather, © 2021

Note: Actual official high and low records may vary slightly from our data, if they occured in-between our weather recording intervals... More about our weather records

Quimper Weather History for the Previous 24 Hours

Scroll right to see more
 ConditionsComfort  
Time TempWeatherWind HumidityBarometerVisibility
2:00 pm
Thu, Jun 24
66 °FScattered clouds.7 mph60%30.27 "HgN/A
1:30 pm64 °FScattered clouds.9 mph64%30.27 "HgN/A
1:00 pm64 °FScattered clouds.6 mph64%30.27 "HgN/A
12:30 pm64 °FPassing clouds.8 mph64%30.27 "HgN/A
12:00 pm64 °FPassing clouds.8 mph64%30.27 "HgN/A
11:30 am63 °FPassing clouds.8 mph68%30.27 "HgN/A
11:00 am63 °FPassing clouds.7 mph68%30.27 "HgN/A
10:30 am63 °FPassing clouds.8 mph73%30.27 "HgN/A
10:00 am61 °FPassing clouds.3 mph72%30.27 "HgN/A
9:30 am59 °FClear.5 mph88%30.27 "Hg5 mi
9:00 am55 °FPartly sunny.3 mph94%30.27 "Hg4 mi
8:30 am54 °FFog.6 mph100%30.27 "Hg3 mi
8:00 am52 °FFog.5 mph100%30.27 "Hg2 mi
7:30 am52 °FFog.6 mph100%30.24 "Hg2 mi
7:00 am50 °FFog.6 mph100%30.24 "Hg1 mi
6:30 am50 °FFog.5 mph100%30.24 "Hg2 mi
6:00 am48 °FFog.3 mph100%30.24 "Hg2 mi
5:30 am50 °FFog.3 mph94%30.24 "Hg2 mi
5:00 am50 °FFog.3 mph100%30.24 "Hg3 mi
4:30 am50 °FFog.2 mph100%30.27 "Hg3 mi
4:00 am50 °FFog.2 mph100%30.27 "Hg3 mi
3:30 am50 °FFog.2 mph100%30.27 "Hg3 mi
3:00 am52 °FPassing clouds.3 mph94%30.27 "Hg4 mi
2:30 am52 °FClear.5 mph94%30.27 "Hg4 mi
2:00 am52 °FClear.3 mph88%30.27 "Hg5 mi
1:30 am52 °FClear.5 mph88%30.27 "Hg10 mi
1:00 am52 °FClear.6 mph82%30.27 "Hg10 mi
12:30 am52 °FPassing clouds.6 mph88%30.27 "HgN/A
12:00 am54 °FPassing clouds.5 mph77%30.27 "HgN/A
11:30 pm
Wed, Jun 23
54 °FClear.6 mph77%30.27 "Hg10 mi
11:00 pm55 °FPassing clouds.7 mph67%30.27 "HgN/A
10:30 pm55 °FPassing clouds.7 mph67%30.24 "HgN/A
10:00 pm57 °FSunny.7 mph63%30.24 "Hg10 mi
9:30 pm61 °FSunny.9 mph55%30.24 "Hg10 mi
9:00 pm63 °FPassing clouds.10 mph49%30.24 "HgN/A
8:30 pm63 °FSunny.13 mph52%30.21 "Hg10 mi
8:00 pm64 °FPassing clouds.12 mph49%30.21 "HgN/A
7:30 pm66 °FPassing clouds.12 mph49%30.21 "HgN/A
7:00 pm66 °FPassing clouds.9 mph46%30.21 "HgN/A
6:30 pm66 °FPassing clouds.12 mph49%30.21 "HgN/A
6:00 pm68 °FPassing clouds.12 mph46%30.21 "HgN/A
5:30 pm66 °FPassing clouds.10 mph49%30.21 "HgN/A
5:00 pm66 °FPassing clouds.12 mph49%30.21 "HgN/A
4:30 pm66 °FPassing clouds.9 mph52%30.21 "HgN/A
4:00 pm66 °FPartly sunny.10 mph49%30.21 "HgN/A
3:30 pm64 °FScattered clouds.9 mph56%30.21 "HgN/A
3:00 pm64 °FPartly sunny.12 mph56%30.21 "HgN/A
Weather by CustomWeather, © 2021

See weather overview